sensor_id;sensor_type;location;lat;lon;timestamp;pressure;altitude;pressure_sealevel;temperature;humidity
29163;BME280;20331;53.144;8.208;2023-07-13T00:02:42;101335.69;;;16.52;100.00
29163;BME280;20331;53.144;8.208;2023-07-13T00:13:04;101336.75;;;16.48;100.00
29163;BME280;20331;53.144;8.208;2023-07-13T00:23:25;101343.22;;;16.40;100.00
29163;BME280;20331;53.144;8.208;2023-07-13T00:33:46;101339.19;;;16.33;100.00
29163;BME280;20331;53.144;8.208;2023-07-13T00:44:12;101340.31;;;16.27;100.00
29163;BME280;20331;53.144;8.208;2023-07-13T00:54:39;101340.59;;;16.21;100.00
29163;BME280;20331;53.144;8.208;2023-07-13T01:05:01;101355.63;;;16.16;100.00
29163;BME280;20331;53.144;8.208;2023-07-13T01:15:39;101360.69;;;16.19;100.00
29163;BME280;20331;53.144;8.208;2023-07-13T01:26:01;101360.84;;;16.16;97.28
29163;BME280;20331;53.144;8.208;2023-07-13T01:36:22;101350.97;;;16.04;98.49
29163;BME280;20331;53.144;8.208;2023-07-13T01:46:44;101348.47;;;16.01;99.07
29163;BME280;20331;53.144;8.208;2023-07-13T01:57:06;101351.22;;;15.98;99.54
29163;BME280;20331;53.144;8.208;2023-07-13T02:07:28;101330.75;;;15.89;100.00
29163;BME280;20331;53.144;8.208;2023-07-13T02:17:49;101348.06;;;15.90;100.00
29163;BME280;20331;53.144;8.208;2023-07-13T02:28:11;101351.06;;;16.01;97.76
29163;BME280;20331;53.144;8.208;2023-07-13T02:38:33;101347.69;;;15.99;99.36
29163;BME280;20331;53.144;8.208;2023-07-13T02:48:56;101345.06;;;15.99;94.09
29163;BME280;20331;53.144;8.208;2023-07-13T02:59:17;101354.38;;;16.04;100.00
29163;BME280;20331;53.144;8.208;2023-07-13T03:09:39;101358.56;;;16.08;95.39
29163;BME280;20331;53.144;8.208;2023-07-13T03:20:01;101351.38;;;16.13;94.35
29163;BME280;20331;53.144;8.208;2023-07-13T03:30:22;101353.09;;;16.15;95.43
29163;BME280;20331;53.144;8.208;2023-07-13T03:40:44;101357.44;;;16.14;98.06
29163;BME280;20331;53.144;8.208;2023-07-13T03:51:05;101369.63;;;16.15;94.09
29163;BME280;20331;53.144;8.208;2023-07-13T04:01:27;101374.69;;;16.18;94.91
29163;BME280;20331;53.144;8.208;2023-07-13T04:11:49;101375.53;;;16.19;93.07
29163;BME280;20331;53.144;8.208;2023-07-13T04:22:10;101379.66;;;16.24;94.39
29163;BME280;20331;53.144;8.208;2023-07-13T04:32:32;101387.97;;;16.32;94.46
29163;BME280;20331;53.144;8.208;2023-07-13T04:42:53;101396.19;;;16.43;93.17
29163;BME280;20331;53.144;8.208;2023-07-13T04:53:15;101393.47;;;16.45;97.97
29163;BME280;20331;53.144;8.208;2023-07-13T05:03:36;101391.63;;;16.48;93.76
29163;BME280;20331;53.144;8.208;2023-07-13T05:13:58;101405.97;;;16.58;93.91
29163;BME280;20331;53.144;8.208;2023-07-13T05:24:20;101411.81;;;16.63;92.58
29163;BME280;20331;53.144;8.208;2023-07-13T05:34:46;101427.25;;;16.69;93.12
29163;BME280;20331;53.144;8.208;2023-07-13T05:45:07;101419.75;;;16.80;91.58
29163;BME280;20331;53.144;8.208;2023-07-13T05:55:29;101434.25;;;16.87;92.53
29163;BME280;20331;53.144;8.208;2023-07-13T06:05:50;101436.34;;;16.98;91.55
29163;BME280;20331;53.144;8.208;2023-07-13T06:16:12;101443.41;;;17.15;90.04
29163;BME280;20331;53.144;8.208;2023-07-13T06:26:34;101448.91;;;17.27;88.79
29163;BME280;20331;53.144;8.208;2023-07-13T06:36:55;101461.06;;;17.47;90.41
29163;BME280;20331;53.144;8.208;2023-07-13T06:47:17;101473.41;;;17.62;87.84
29163;BME280;20331;53.144;8.208;2023-07-13T06:57:38;101462.78;;;17.82;88.46
29163;BME280;20331;53.144;8.208;2023-07-13T07:08:00;101471.28;;;18.04;86.83
29163;BME280;20331;53.144;8.208;2023-07-13T07:18:21;101476.28;;;18.26;86.39
29163;BME280;20331;53.144;8.208;2023-07-13T07:28:43;101474.22;;;18.49;86.66
29163;BME280;20331;53.144;8.208;2023-07-13T07:39:10;101472.28;;;18.68;85.55
29163;BME280;20331;53.144;8.208;2023-07-13T07:49:32;101469.63;;;18.85;84.03
29163;BME280;20331;53.144;8.208;2023-07-13T07:59:54;101474.53;;;19.07;83.95
29163;BME280;20331;53.144;8.208;2023-07-13T08:10:18;101486.56;;;19.27;83.85
29163;BME280;20331;53.144;8.208;2023-07-13T08:20:40;101481.34;;;19.42;80.73
29163;BME280;20331;53.144;8.208;2023-07-13T08:31:02;101475.53;;;19.67;80.76
29163;BME280;20331;53.144;8.208;2023-07-13T08:41:24;101468.13;;;19.89;79.69
29163;BME280;20331;53.144;8.208;2023-07-13T09:02:20;101477.66;;;20.49;75.16
29163;BME280;20331;53.144;8.208;2023-07-13T09:23:11;101471.81;;;20.86;73.99
29163;BME280;20331;53.144;8.208;2023-07-13T09:33:33;101470.03;;;20.87;74.92
29163;BME280;20331;53.144;8.208;2023-07-13T09:44:16;101470.31;;;20.82;74.64
29163;BME280;20331;53.144;8.208;2023-07-13T09:54:37;101474.63;;;21.26;73.85
29163;BME280;20331;53.144;8.208;2023-07-13T10:05:00;101474.41;;;21.29;70.97
29163;BME280;20331;53.144;8.208;2023-07-13T10:15:23;101483.59;;;21.50;70.42
29163;BME280;20331;53.144;8.208;2023-07-13T10:25:45;101500.03;;;21.80;71.42
29163;BME280;20331;53.144;8.208;2023-07-13T10:36:20;101501.53;;;21.84;72.63
29163;BME280;20331;53.144;8.208;2023-07-13T10:46:44;101521.53;;;21.33;72.07
29163;BME280;20331;53.144;8.208;2023-07-13T11:07:54;101620.50;;;19.42;74.14
29163;BME280;20331;53.144;8.208;2023-07-13T11:18:19;101621.13;;;18.29;82.16
29163;BME280;20331;53.144;8.208;2023-07-13T11:28:41;101619.63;;;17.88;85.69
29163;BME280;20331;53.144;8.208;2023-07-13T11:39:05;101625.56;;;17.73;86.59
29163;BME280;20331;53.144;8.208;2023-07-13T11:49:40;101641.63;;;17.65;85.89
29163;BME280;20331;53.144;8.208;2023-07-13T12:00:04;101630.78;;;18.10;88.64
29163;BME280;20331;53.144;8.208;2023-07-13T12:10:30;101633.94;;;18.86;84.09
29163;BME280;20331;53.144;8.208;2023-07-13T12:20:55;101639.94;;;19.05;81.69
29163;BME280;20331;53.144;8.208;2023-07-13T12:41:49;101648.22;;;19.79;79.16
29163;BME280;20331;53.144;8.208;2023-07-13T12:52:15;101645.41;;;20.13;77.42
29163;BME280;20331;53.144;8.208;2023-07-13T13:02:37;101640.44;;;20.24;76.30
29163;BME280;20331;53.144;8.208;2023-07-13T13:12:59;101652.28;;;20.31;75.90
29163;BME280;20331;53.144;8.208;2023-07-13T13:23:20;101635.75;;;20.14;78.04
29163;BME280;20331;53.144;8.208;2023-07-13T13:33:44;101632.53;;;20.24;78.09
29163;BME280;20331;53.144;8.208;2023-07-13T13:44:08;101628.97;;;20.55;77.34
29163;BME280;20331;53.144;8.208;2023-07-13T13:54:30;101635.16;;;20.83;76.27
29163;BME280;20331;53.144;8.208;2023-07-13T14:04:56;101635.88;;;21.01;76.38
29163;BME280;20331;53.144;8.208;2023-07-13T14:15:26;101634.50;;;20.80;76.60
29163;BME280;20331;53.144;8.208;2023-07-13T14:25:48;101683.78;;;19.03;86.46
29163;BME280;20331;53.144;8.208;2023-07-13T14:46:35;101681.06;;;17.99;100.00
29163;BME280;20331;53.144;8.208;2023-07-13T14:56:56;101689.03;;;18.15;100.00
29163;BME280;20331;53.144;8.208;2023-07-13T15:07:18;101682.28;;;18.11;100.00
29163;BME280;20331;53.144;8.208;2023-07-13T15:17:43;101698.34;;;17.85;100.00
29163;BME280;20331;53.144;8.208;2023-07-13T15:28:05;101679.66;;;17.74;100.00
29163;BME280;20331;53.144;8.208;2023-07-13T15:38:30;101700.47;;;17.77;100.00
29163;BME280;20331;53.144;8.208;2023-07-13T15:48:53;101684.75;;;17.95;100.00
29163;BME280;20331;53.144;8.208;2023-07-13T15:59:18;101686.84;;;18.06;100.00
29163;BME280;20331;53.144;8.208;2023-07-13T16:09:39;101682.59;;;18.22;100.00
29163;BME280;20331;53.144;8.208;2023-07-13T16:20:01;101678.78;;;18.29;99.14
29163;BME280;20331;53.144;8.208;2023-07-13T16:30:25;101689.56;;;18.76;98.37
29163;BME280;20331;53.144;8.208;2023-07-13T16:40:48;101688.72;;;19.10;99.53
29163;BME280;20331;53.144;8.208;2023-07-13T16:51:09;101693.25;;;19.56;99.04
29163;BME280;20331;53.144;8.208;2023-07-13T17:01:31;101693.06;;;19.76;98.79
29163;BME280;20331;53.144;8.208;2023-07-13T17:11:52;101697.59;;;20.21;95.17
29163;BME280;20331;53.144;8.208;2023-07-13T17:22:17;101701.31;;;20.32;94.64
29163;BME280;20331;53.144;8.208;2023-07-13T17:32:39;101696.53;;;20.08;97.40
29163;BME280;20331;53.144;8.208;2023-07-13T17:43:01;101710.34;;;20.11;96.66
29163;BME280;20331;53.144;8.208;2023-07-13T17:53:22;101710.50;;;19.77;99.29
29163;BME280;20331;53.144;8.208;2023-07-13T18:03:44;101721.72;;;19.48;100.00
29163;BME280;20331;53.144;8.208;2023-07-13T18:14:06;101716.97;;;19.39;100.00
29163;BME280;20331;53.144;8.208;2023-07-13T18:24:28;101723.47;;;19.32;100.00
29163;BME280;20331;53.144;8.208;2023-07-13T18:34:51;101720.63;;;19.18;100.00
29163;BME280;20331;53.144;8.208;2023-07-13T18:45:14;101731.00;;;19.03;100.00
29163;BME280;20331;53.144;8.208;2023-07-13T18:55:37;101725.59;;;18.89;100.00
29163;BME280;20331;53.144;8.208;2023-07-13T19:06:01;101754.31;;;18.92;100.00
29163;BME280;20331;53.144;8.208;2023-07-13T19:16:25;101740.88;;;18.81;100.00
29163;BME280;20331;53.144;8.208;2023-07-13T19:26:47;101757.22;;;18.69;100.00
29163;BME280;20331;53.144;8.208;2023-07-13T19:37:23;101759.19;;;18.64;100.00
29163;BME280;20331;53.144;8.208;2023-07-13T19:47:45;101778.75;;;18.57;100.00
29163;BME280;20331;53.144;8.208;2023-07-13T19:58:08;101782.75;;;18.47;100.00
29163;BME280;20331;53.144;8.208;2023-07-13T20:08:30;101809.09;;;18.44;100.00
29163;BME280;20331;53.144;8.208;2023-07-13T20:18:52;101811.06;;;18.39;100.00
29163;BME280;20331;53.144;8.208;2023-07-13T20:29:14;101823.38;;;18.37;100.00
29163;BME280;20331;53.144;8.208;2023-07-13T20:39:36;101822.59;;;18.35;100.00
29163;BME280;20331;53.144;8.208;2023-07-13T20:49:57;101824.88;;;18.24;100.00
29163;BME280;20331;53.144;8.208;2023-07-13T21:00:21;101824.94;;;18.23;100.00
29163;BME280;20331;53.144;8.208;2023-07-13T21:10:43;101819.41;;;18.10;100.00
29163;BME280;20331;53.144;8.208;2023-07-13T21:21:07;101830.78;;;17.90;100.00
29163;BME280;20331;53.144;8.208;2023-07-13T21:31:31;101838.19;;;17.81;100.00
29163;BME280;20331;53.144;8.208;2023-07-13T21:41:54;101847.22;;;17.74;100.00
29163;BME280;20331;53.144;8.208;2023-07-13T21:52:16;101849.47;;;17.63;100.00
29163;BME280;20331;53.144;8.208;2023-07-13T22:02:38;101853.25;;;17.56;100.00
29163;BME280;20331;53.144;8.208;2023-07-13T22:12:59;101868.69;;;17.62;100.00
29163;BME280;20331;53.144;8.208;2023-07-13T22:23:25;101867.00;;;17.61;100.00
29163;BME280;20331;53.144;8.208;2023-07-13T22:33:46;101853.25;;;17.56;100.00
29163;BME280;20331;53.144;8.208;2023-07-13T22:44:10;101846.44;;;17.52;100.00
29163;BME280;20331;53.144;8.208;2023-07-13T22:54:31;101848.78;;;17.38;100.00
29163;BME280;20331;53.144;8.208;2023-07-13T23:04:53;101868.94;;;17.34;100.00
29163;BME280;20331;53.144;8.208;2023-07-13T23:15:15;101869.94;;;17.32;100.00
29163;BME280;20331;53.144;8.208;2023-07-13T23:25:40;101861.44;;;17.27;100.00
29163;BME280;20331;53.144;8.208;2023-07-13T23:36:01;101851.34;;;17.18;100.00
29163;BME280;20331;53.144;8.208;2023-07-13T23:46:25;101843.09;;;17.06;100.00
29163;BME280;20331;53.144;8.208;2023-07-13T23:56:48;101855.44;;;17.03;100.00
